createdAt,value
2023-04-04T00:00:53.890Z,47.82
2023-04-04T00:01:56.214Z,48.19
2023-04-04T00:02:58.403Z,48.12
2023-04-04T00:04:00.573Z,47.89
2023-04-04T00:05:03.079Z,48.04
2023-04-04T00:06:05.064Z,47.97
2023-04-04T00:07:07.635Z,48.24
2023-04-04T00:08:09.598Z,48.22
2023-04-04T00:09:13.144Z,48.19
2023-04-04T00:10:15.868Z,48.09
2023-04-04T00:11:18.052Z,47.74
2023-04-04T00:12:20.038Z,48.19
2023-04-04T00:13:22.065Z,48.06
2023-04-04T00:14:23.976Z,48.32
2023-04-04T00:15:26.165Z,48.36
2023-04-04T00:16:29.338Z,48.81
2023-04-04T00:17:31.641Z,49.09
2023-04-04T00:18:33.579Z,49.13
2023-04-04T00:19:35.540Z,48.79
2023-04-04T00:20:37.510Z,48.45
2023-04-04T00:21:39.736Z,48.65
2023-04-04T00:22:41.780Z,48.55
2023-04-04T00:23:44.914Z,48.69
2023-04-04T00:24:46.819Z,49.02
2023-04-04T00:25:52.903Z,48.74
2023-04-04T00:26:55.089Z,48.85
2023-04-04T00:28:01.075Z,48.86
2023-04-04T00:29:03.416Z,49.29
2023-04-04T00:30:06.436Z,49.30
2023-04-04T00:31:08.518Z,49.71
2023-04-04T00:32:10.565Z,49.80
2023-04-04T00:33:13.124Z,49.16
2023-04-04T00:34:15.604Z,49.73
2023-04-04T00:35:17.737Z,49.71
2023-04-04T00:36:19.861Z,49.70
2023-04-04T00:37:22.376Z,49.61
2023-04-04T00:38:24.418Z,49.25
2023-04-04T00:39:27.397Z,49.58
2023-04-04T00:40:29.343Z,49.42
2023-04-04T00:41:31.452Z,49.43
2023-04-04T00:42:34.305Z,49.59
2023-04-04T00:43:36.358Z,50.13
2023-04-04T00:44:38.612Z,49.99
2023-04-04T00:45:41.694Z,50.26
2023-04-04T00:46:43.798Z,50.28
2023-04-04T00:47:47.025Z,50.01
2023-04-04T00:48:50.281Z,50.49
2023-04-04T00:49:52.732Z,50.27
2023-04-04T00:50:54.839Z,50.06
2023-04-04T00:51:58.029Z,50.23
2023-04-04T00:53:00.667Z,50.59
2023-04-04T00:54:03.321Z,50.37
2023-04-04T00:55:06.159Z,50.22
2023-04-04T00:56:09.694Z,50.53
2023-04-04T00:57:12.191Z,50.32
2023-04-04T00:58:14.114Z,50.84
2023-04-04T00:59:16.431Z,50.53
2023-04-04T01:00:18.866Z,50.47
2023-04-04T01:01:22.250Z,50.68
2023-04-04T01:02:25.634Z,50.72
2023-04-04T01:03:28.117Z,50.52
2023-04-04T01:04:30.756Z,50.73
2023-04-04T01:05:33.177Z,50.52
2023-04-04T01:06:35.676Z,50.52
2023-04-04T01:07:37.749Z,50.79
2023-04-04T01:08:40.866Z,50.92
2023-04-04T01:09:43.256Z,50.75
2023-04-04T01:10:45.358Z,50.51
2023-04-04T01:11:47.725Z,50.89
2023-04-04T01:12:50.167Z,50.66
2023-04-04T01:13:52.564Z,51.06
2023-04-04T01:14:54.551Z,50.64
2023-04-04T01:15:56.553Z,50.71
2023-04-04T01:16:59.885Z,50.79
2023-04-04T01:18:04.299Z,50.72
2023-04-04T01:19:11.938Z,50.58
2023-04-04T01:20:22.624Z,50.56
2023-04-04T01:21:24.976Z,50.51
2023-04-04T01:22:29.859Z,50.52
2023-04-04T01:23:50.804Z,51.12
2023-04-04T01:24:55.808Z,50.97
2023-04-04T01:26:04.818Z,50.81
2023-04-04T01:27:06.881Z,51.04
2023-04-04T01:28:09.294Z,50.98
2023-04-04T01:29:11.371Z,50.51
2023-04-04T01:30:15.244Z,50.61
2023-04-04T01:31:22.332Z,50.66
2023-04-04T01:32:49.771Z,50.68
2023-04-04T01:34:15.210Z,50.75
2023-04-04T01:35:33.580Z,50.79
2023-04-04T01:37:21.426Z,50.57
2023-04-04T01:38:40.933Z,51.07
2023-04-04T01:40:09.671Z,50.19
2023-04-04T01:41:13.347Z,50.84
2023-04-04T01:42:17.068Z,51.08
2023-04-04T01:43:20.750Z,51.09
2023-04-04T01:44:24.127Z,51.19
2023-04-04T01:45:26.513Z,51.30
2023-04-04T01:46:28.472Z,51.20
2023-04-04T01:47:38.775Z,51.61
2023-04-04T01:48:41.953Z,51.56
2023-04-04T01:49:44.894Z,51.64
2023-04-04T01:50:47.315Z,51.66
2023-04-04T01:51:51.720Z,51.93
2023-04-04T01:52:54.282Z,52.41
2023-04-04T01:53:56.252Z,52.02
2023-04-04T01:54:58.448Z,52.04
2023-04-04T01:56:00.496Z,52.17
2023-04-04T01:57:02.672Z,52.17
2023-04-04T01:58:04.578Z,52.14
2023-04-04T01:59:07.427Z,52.07
2023-04-04T02:00:10.035Z,52.13
2023-04-04T02:01:12.117Z,52.55
2023-04-04T02:02:14.068Z,52.68
2023-04-04T02:03:16.227Z,52.65
2023-04-04T02:04:18.366Z,52.27
2023-04-04T02:05:20.585Z,52.25
2023-04-04T02:06:22.717Z,52.61
2023-04-04T02:07:24.636Z,52.68
2023-04-04T02:08:26.564Z,52.31
2023-04-04T02:09:28.874Z,52.67
2023-04-04T02:10:31.080Z,52.64
2023-04-04T02:11:33.548Z,52.43
2023-04-04T02:12:35.610Z,52.44
2023-04-04T02:13:41.448Z,52.73
2023-04-04T02:14:43.324Z,52.67
2023-04-04T02:15:45.320Z,52.42
2023-04-04T02:16:47.451Z,52.09
2023-04-04T02:17:49.922Z,52.51
2023-04-04T02:18:52.097Z,52.18
2023-04-04T02:19:54.063Z,52.45
2023-04-04T02:20:57.748Z,52.40
2023-04-04T02:21:59.705Z,52.51
2023-04-04T02:23:01.789Z,52.46
2023-04-04T02:24:04.130Z,52.66
2023-04-04T02:25:07.072Z,52.84
2023-04-04T02:26:09.185Z,52.31
2023-04-04T02:27:11.288Z,52.07
2023-04-04T02:28:13.332Z,52.10
2023-04-04T02:29:15.286Z,52.41
2023-04-04T02:30:17.749Z,52.27
2023-04-04T02:31:20.185Z,52.32
2023-04-04T02:32:23.235Z,51.96
2023-04-04T02:33:25.229Z,51.71
2023-04-04T02:34:27.686Z,51.61
2023-04-04T02:35:29.693Z,51.76
2023-04-04T02:36:31.893Z,51.70
2023-04-04T02:37:33.872Z,51.68
2023-04-04T02:38:36.661Z,51.84
2023-04-04T02:39:38.690Z,51.62
2023-04-04T02:40:42.519Z,51.29
2023-04-04T02:41:44.598Z,51.34
2023-04-04T02:42:46.672Z,51.09
2023-04-04T02:43:48.679Z,50.99
2023-04-04T02:44:50.560Z,50.75
2023-04-04T02:45:52.671Z,50.81
2023-04-04T02:46:54.711Z,50.85
2023-04-04T02:47:57.004Z,51.21
2023-04-04T02:48:59.001Z,50.86
2023-04-04T02:50:01.739Z,50.76
2023-04-04T02:51:05.374Z,51.22
2023-04-04T02:52:08.445Z,50.97
2023-04-04T02:53:10.725Z,50.69
2023-04-04T02:54:13.058Z,50.32
2023-04-04T02:55:15.148Z,50.40
2023-04-04T02:56:17.514Z,49.91
2023-04-04T02:57:19.454Z,50.04
2023-04-04T02:58:21.485Z,50.08
2023-04-04T02:59:23.778Z,49.80
2023-04-04T03:00:26.002Z,50.22
2023-04-04T03:01:28.241Z,49.73
2023-04-04T03:02:31.039Z,49.33
2023-04-04T03:03:33.251Z,49.82
2023-04-04T03:04:36.825Z,49.71
2023-04-04T03:05:38.935Z,49.26
2023-04-04T03:06:41.606Z,49.17
2023-04-04T03:07:43.537Z,48.66
2023-04-04T03:08:46.103Z,48.84
2023-04-04T03:09:48.016Z,48.70
2023-04-04T03:10:49.957Z,48.74
2023-04-04T03:11:52.269Z,48.56
2023-04-04T03:12:54.228Z,48.13
2023-04-04T03:13:56.343Z,47.87
2023-04-04T03:14:58.284Z,47.94
2023-04-04T03:16:07.006Z,48.25
2023-04-04T03:17:10.906Z,47.25
2023-04-04T03:18:13.040Z,47.65
2023-04-04T03:19:15.238Z,47.15
2023-04-04T03:20:17.232Z,47.13
2023-04-04T03:21:19.237Z,47.09
2023-04-04T03:22:21.146Z,47.12
2023-04-04T03:23:23.258Z,46.55
2023-04-04T03:24:25.566Z,46.54
2023-04-04T03:25:27.677Z,46.44
2023-04-04T03:26:29.869Z,46.31
2023-04-04T03:27:32.714Z,46.19
2023-04-04T03:28:34.703Z,45.90
2023-04-04T03:29:37.099Z,45.98
2023-04-04T03:30:39.406Z,46.33
2023-04-04T03:31:41.956Z,45.87
2023-04-04T03:32:44.025Z,45.74
2023-04-04T03:33:46.268Z,45.55
2023-04-04T03:34:48.160Z,45.79
2023-04-04T03:35:50.192Z,45.84
2023-04-04T03:36:53.717Z,45.64
2023-04-04T03:37:56.531Z,45.22
2023-04-04T03:38:58.419Z,45.31
2023-04-04T03:40:00.577Z,44.91
2023-04-04T03:41:06.290Z,45.02
2023-04-04T03:42:08.430Z,44.42
2023-04-04T03:43:10.483Z,44.16
2023-04-04T03:44:12.435Z,44.21
2023-04-04T03:45:14.501Z,44.33
2023-04-04T03:46:17.104Z,44.11
2023-04-04T03:47:19.496Z,43.91
2023-04-04T03:48:21.436Z,43.92
2023-04-04T03:49:23.518Z,43.66
2023-04-04T03:50:25.734Z,43.51
2023-04-04T03:51:28.125Z,43.74
2023-04-04T03:52:30.172Z,43.29
2023-04-04T03:53:32.549Z,43.32
2023-04-04T03:54:34.825Z,43.10
2023-04-04T03:55:37.136Z,43.19
2023-04-04T03:56:39.236Z,43.08
2023-04-04T03:57:43.364Z,42.99
2023-04-04T03:58:45.945Z,42.76
2023-04-04T03:59:47.917Z,42.68
2023-04-04T04:00:50.463Z,42.07
2023-04-04T04:01:52.721Z,42.54
2023-04-04T04:02:54.922Z,42.45
2023-04-04T04:03:58.098Z,42.07
2023-04-04T04:05:00.264Z,42.38
2023-04-04T04:06:02.183Z,42.07
2023-04-04T04:07:04.219Z,42.09
2023-04-04T04:08:06.399Z,42.14
2023-04-04T04:09:08.304Z,41.88
2023-04-04T04:10:10.564Z,42.02
2023-04-04T04:11:12.606Z,41.90
2023-04-04T04:12:14.718Z,42.00
2023-04-04T04:13:16.729Z,41.79
2023-04-04T04:14:18.636Z,41.86
2023-04-04T04:15:20.902Z,42.03
2023-04-04T04:16:23.231Z,41.86
2023-04-04T04:17:25.240Z,41.83
2023-04-04T04:18:27.897Z,41.70
2023-04-04T04:19:30.186Z,41.28
2023-04-04T04:20:32.061Z,41.21
2023-04-04T04:21:34.037Z,41.65
2023-04-04T04:22:37.136Z,41.34
2023-04-04T04:23:39.300Z,41.34
2023-04-04T04:24:41.304Z,41.44
2023-04-04T04:25:43.422Z,41.46
2023-04-04T04:26:45.606Z,41.36
2023-04-04T04:27:47.566Z,41.36
2023-04-04T04:28:49.520Z,41.36
2023-04-04T04:29:51.850Z,41.19
2023-04-04T04:30:53.943Z,41.36
2023-04-04T04:31:56.186Z,41.05
2023-04-04T04:32:58.269Z,40.76
2023-04-04T04:34:00.851Z,40.81
2023-04-04T04:35:03.375Z,40.81
2023-04-04T04:36:07.465Z,40.58
2023-04-04T04:37:09.629Z,40.53
2023-04-04T04:38:11.792Z,40.32
2023-04-04T04:39:13.769Z,39.93
2023-04-04T04:40:16.596Z,40.08
2023-04-04T04:41:18.556Z,39.99
2023-04-04T04:42:21.535Z,39.97
2023-04-04T04:43:24.116Z,39.77
2023-04-04T04:44:26.428Z,39.55
2023-04-04T04:45:28.610Z,39.43
2023-04-04T04:46:30.826Z,39.30
2023-04-04T04:47:32.938Z,39.43
2023-04-04T04:48:35.564Z,39.44
2023-04-04T04:49:37.638Z,39.14
2023-04-04T04:50:40.091Z,39.34
2023-04-04T04:51:43.113Z,39.01
2023-04-04T04:52:45.858Z,39.25
2023-04-04T04:53:47.816Z,39.17
2023-04-04T04:54:51.141Z,39.08
2023-04-04T04:55:53.629Z,39.34
2023-04-04T04:56:55.714Z,39.44
2023-04-04T04:57:58.019Z,39.34
2023-04-04T04:59:00.090Z,39.29
2023-04-04T05:00:02.546Z,39.51
2023-04-04T05:01:05.839Z,39.53
2023-04-04T05:02:09.932Z,39.34
2023-04-04T05:03:12.349Z,39.30
2023-04-04T05:04:14.876Z,39.53
2023-04-04T05:05:16.824Z,39.32
2023-04-04T05:06:18.745Z,39.48
2023-04-04T05:07:20.644Z,39.54
2023-04-04T05:08:22.954Z,39.29
2023-04-04T05:09:24.949Z,39.51
2023-04-04T05:10:26.866Z,39.51
2023-04-04T05:11:28.799Z,39.41
2023-04-04T05:12:30.745Z,39.54
2023-04-04T05:13:32.893Z,39.45
2023-04-04T05:14:34.945Z,39.40
2023-04-04T05:15:37.236Z,39.43
2023-04-04T05:16:39.261Z,39.61
2023-04-04T05:17:41.712Z,39.77
2023-04-04T05:18:43.810Z,39.51
2023-04-04T05:19:46.614Z,39.50
2023-04-04T05:20:55.273Z,39.52
2023-04-04T05:21:57.194Z,39.73
2023-04-04T05:22:59.106Z,39.97
2023-04-04T05:24:01.105Z,39.73
2023-04-04T05:25:03.579Z,39.76
2023-04-04T05:26:05.784Z,39.68
2023-04-04T05:27:07.696Z,39.67
2023-04-04T05:28:09.673Z,39.41
2023-04-04T05:29:11.652Z,39.75
2023-04-04T05:30:13.668Z,39.46
2023-04-04T05:31:15.812Z,39.55
2023-04-04T05:32:17.739Z,39.48
2023-04-04T05:33:19.692Z,39.38
2023-04-04T05:34:21.782Z,39.28
2023-04-04T05:35:23.860Z,39.20
2023-04-04T05:36:26.042Z,38.96
2023-04-04T05:37:28.301Z,39.38
2023-04-04T05:38:31.193Z,39.27
2023-04-04T05:39:33.158Z,39.25
2023-04-04T05:40:35.182Z,39.34
2023-04-04T05:41:37.905Z,39.36
2023-04-04T05:42:39.872Z,39.56
2023-04-04T05:43:42.118Z,39.32
2023-04-04T05:44:44.025Z,39.23
2023-04-04T05:45:46.227Z,39.22
2023-04-04T05:46:48.329Z,39.12
2023-04-04T05:47:50.450Z,39.04
2023-04-04T05:48:52.587Z,39.27
2023-04-04T05:49:54.571Z,39.23
2023-04-04T05:50:56.801Z,39.17
2023-04-04T05:51:58.819Z,39.11
2023-04-04T05:53:00.845Z,39.09
2023-04-04T05:54:03.330Z,38.88
2023-04-04T05:55:05.860Z,38.97
2023-04-04T05:56:08.024Z,39.05
2023-04-04T05:57:10.471Z,39.23
2023-04-04T05:58:13.655Z,39.06
2023-04-04T05:59:16.482Z,38.81
2023-04-04T06:00:19.721Z,38.70
2023-04-04T06:01:21.700Z,38.42
2023-04-04T06:02:24.028Z,38.31
2023-04-04T06:03:26.391Z,38.33
2023-04-04T06:04:28.424Z,38.17
2023-04-04T06:05:30.564Z,38.27
2023-04-04T06:06:33.503Z,37.82
2023-04-04T06:07:35.645Z,37.93
2023-04-04T06:08:50.224Z,37.93
2023-04-04T06:09:54.740Z,37.96
2023-04-04T06:10:56.745Z,37.62
2023-04-04T06:11:58.670Z,38.01
2023-04-04T06:13:00.639Z,38.04
2023-04-04T06:14:02.817Z,37.48
2023-04-04T06:15:05.148Z,37.32
2023-04-04T06:16:07.521Z,36.68
2023-04-04T06:17:09.638Z,36.92
2023-04-04T06:18:11.681Z,37.20
2023-04-04T06:19:13.703Z,37.30
2023-04-04T06:20:15.873Z,36.86
2023-04-04T06:21:18.060Z,36.91
2023-04-04T06:22:20.037Z,36.41
2023-04-04T06:23:21.944Z,36.50
2023-04-04T06:24:23.874Z,36.46
2023-04-04T06:25:27.000Z,36.46
2023-04-04T06:26:29.093Z,36.66
2023-04-04T06:27:31.147Z,36.92
2023-04-04T06:28:33.172Z,36.90
2023-04-04T06:29:35.224Z,37.06
2023-04-04T06:30:40.473Z,37.01
2023-04-04T06:31:42.708Z,37.09
2023-04-04T06:32:45.394Z,37.24
2023-04-04T06:33:47.433Z,37.44
2023-04-04T06:34:49.489Z,37.37
2023-04-04T06:35:51.589Z,37.51
2023-04-04T06:36:53.770Z,37.33
2023-04-04T06:37:56.376Z,37.52
2023-04-04T06:38:58.400Z,37.38
2023-04-04T06:40:00.328Z,37.53
2023-04-04T06:41:02.388Z,37.26
2023-04-04T06:42:04.432Z,37.34
2023-04-04T06:43:06.471Z,37.42
2023-04-04T06:44:08.546Z,37.53
2023-04-04T06:45:10.765Z,36.99
2023-04-04T06:46:13.132Z,37.33
2023-04-04T06:47:15.205Z,36.64
2023-04-04T06:48:18.243Z,36.99
2023-04-04T06:49:20.570Z,36.83
2023-04-04T06:50:23.241Z,36.91
2023-04-04T06:51:25.792Z,36.80
2023-04-04T06:52:27.908Z,36.85
2023-04-04T06:53:30.363Z,36.72
2023-04-04T06:54:32.543Z,36.84
2023-04-04T06:55:35.199Z,37.02
2023-04-04T06:56:37.558Z,37.21
2023-04-04T06:57:39.779Z,36.99
2023-04-04T06:58:42.307Z,36.89
2023-04-04T06:59:45.202Z,37.01
2023-04-04T07:00:47.364Z,36.76
2023-04-04T07:01:49.341Z,36.93
2023-04-04T07:05:52.780Z,37.13
2023-04-04T07:06:55.408Z,37.20
2023-04-04T07:08:06.937Z,37.11
2023-04-04T07:09:18.473Z,37.03
2023-04-04T07:10:28.325Z,36.97
2023-04-04T07:11:31.428Z,36.75
2023-04-04T07:14:03.678Z,37.14
2023-04-04T07:15:06.221Z,37.13
2023-04-04T07:16:08.211Z,37.32
2023-04-04T07:17:21.151Z,37.26
2023-04-04T07:19:49.544Z,36.97
2023-04-04T07:20:51.678Z,36.82
2023-04-04T07:21:53.732Z,37.03
2023-04-04T07:22:56.113Z,37.05
2023-04-04T07:23:58.122Z,37.03
2023-04-04T07:26:30.651Z,37.15
2023-04-04T07:27:42.728Z,37.05
2023-04-04T07:28:44.633Z,36.90
2023-04-04T07:30:26.145Z,36.88
2023-04-04T07:33:56.782Z,36.64
2023-04-04T07:35:24.871Z,36.59
2023-04-04T07:36:26.818Z,36.41
2023-04-04T07:37:54.127Z,36.25
2023-04-04T07:38:56.104Z,36.38
2023-04-04T07:44:33.221Z,36.91
2023-04-04T07:46:13.899Z,36.70
2023-04-04T07:47:55.112Z,35.99
2023-04-04T07:48:57.228Z,36.17
2023-04-04T07:56:18.691Z,35.39
2023-04-04T07:57:28.448Z,35.30
2023-04-04T08:00:00.881Z,35.44
2023-04-04T08:01:03.863Z,36.30
2023-04-04T08:02:05.876Z,35.47
2023-04-04T08:03:07.926Z,35.58
2023-04-04T08:04:10.017Z,35.14
2023-04-04T08:05:11.960Z,35.04
2023-04-04T08:06:13.976Z,35.11
2023-04-04T08:07:16.390Z,34.73
2023-04-04T08:08:19.033Z,34.08
2023-04-04T08:09:21.148Z,34.21
2023-04-04T08:10:23.367Z,34.14
2023-04-04T08:11:25.410Z,34.40
2023-04-04T08:12:28.109Z,34.04
2023-04-04T08:13:30.289Z,34.14
2023-04-04T08:14:32.241Z,33.81
2023-04-04T08:15:34.325Z,33.41
2023-04-04T08:16:36.764Z,32.96
2023-04-04T08:17:38.878Z,33.13
2023-04-04T08:18:40.960Z,32.99
2023-04-04T08:19:42.966Z,33.18
2023-04-04T08:20:45.275Z,32.85
2023-04-04T08:21:47.271Z,32.91
2023-04-04T08:22:49.237Z,32.65
2023-04-04T08:23:51.547Z,32.94
2023-04-04T08:24:53.493Z,32.63
2023-04-04T08:25:55.628Z,32.49
2023-04-04T08:27:05.363Z,32.98
2023-04-04T08:28:08.097Z,33.23
2023-04-04T08:29:10.392Z,32.29
2023-04-04T08:30:14.528Z,31.99
2023-04-04T08:31:17.151Z,32.17
2023-04-04T08:32:19.246Z,31.59
2023-04-04T08:33:29.056Z,31.83
2023-04-04T08:34:36.731Z,31.74
2023-04-04T08:35:38.751Z,31.26
2023-04-04T08:36:41.897Z,30.86
2023-04-04T08:37:47.149Z,30.56
2023-04-04T08:38:49.104Z,30.50
2023-04-04T08:39:51.395Z,30.60
2023-04-04T08:40:53.728Z,30.53
2023-04-04T08:42:06.687Z,30.86
2023-04-04T08:43:09.424Z,30.40
2023-04-04T08:44:22.955Z,30.66
2023-04-04T08:45:26.132Z,30.83
2023-04-04T08:46:28.647Z,30.63
2023-04-04T08:47:33.475Z,30.11
2023-04-04T08:48:37.616Z,30.19
2023-04-04T08:49:43.773Z,30.39
2023-04-04T08:50:47.133Z,30.03
2023-04-04T08:51:52.525Z,29.77
2023-04-04T08:52:55.421Z,30.27
2023-04-04T08:53:57.965Z,29.77
2023-04-04T08:55:00.195Z,29.87
2023-04-04T08:56:02.339Z,29.48
2023-04-04T08:57:04.415Z,29.94
2023-04-04T08:58:06.628Z,30.05
2023-04-04T08:59:09.088Z,29.96
2023-04-04T09:00:11.960Z,29.75
2023-04-04T09:01:14.239Z,29.62
2023-04-04T09:02:22.925Z,29.48
2023-04-04T09:03:27.647Z,29.24
2023-04-04T09:04:30.192Z,29.05
2023-04-04T09:05:33.236Z,29.50
2023-04-04T09:06:36.047Z,29.06
2023-04-04T09:07:39.399Z,28.91
2023-04-04T09:08:43.463Z,28.56
2023-04-04T09:09:47.412Z,28.37
2023-04-04T09:10:49.865Z,28.64
2023-04-04T09:11:53.004Z,28.42
2023-04-04T09:13:02.153Z,28.63
2023-04-04T09:14:07.417Z,28.85
2023-04-04T09:15:10.356Z,28.68
2023-04-04T09:16:12.514Z,28.49
2023-04-04T09:17:14.711Z,28.35
2023-04-04T09:18:18.192Z,28.36
2023-04-04T09:19:20.472Z,28.00
2023-04-04T09:20:42.640Z,27.79
2023-04-04T09:21:48.600Z,28.78
2023-04-04T09:22:50.537Z,27.66
2023-04-04T09:24:00.351Z,26.99
2023-04-04T09:25:02.374Z,26.95
2023-04-04T09:26:06.306Z,27.17
2023-04-04T09:27:10.711Z,27.55
2023-04-04T09:28:15.867Z,27.09
2023-04-04T09:29:19.660Z,27.12
2023-04-04T09:30:21.676Z,28.09
2023-04-04T09:31:24.981Z,26.92
2023-04-04T09:32:27.611Z,26.56
2023-04-04T09:33:31.624Z,26.65
2023-04-04T09:34:34.064Z,26.36
2023-04-04T09:35:41.948Z,26.35
2023-04-04T09:36:45.231Z,26.28
2023-04-04T09:37:47.328Z,26.19
2023-04-04T09:38:54.222Z,25.83
2023-04-04T09:39:56.637Z,25.84
2023-04-04T09:40:58.875Z,25.98
2023-04-04T09:42:01.923Z,25.85
2023-04-04T09:43:08.154Z,25.58
2023-04-04T09:44:13.403Z,25.61
2023-04-04T09:45:22.344Z,25.78
2023-04-04T09:46:28.239Z,25.61
2023-04-04T09:47:32.036Z,26.00
2023-04-04T09:48:34.994Z,25.24
2023-04-04T09:49:37.117Z,25.81
2023-04-04T09:50:47.060Z,25.91
2023-04-04T09:51:50.443Z,26.02
2023-04-04T09:52:53.003Z,25.78
2023-04-04T09:53:58.525Z,26.00
2023-04-04T09:55:02.452Z,25.91
2023-04-04T09:56:04.810Z,25.83
2023-04-04T09:57:09.212Z,25.68
2023-04-04T09:58:16.671Z,25.50
2023-04-04T09:59:18.966Z,25.01
2023-04-04T10:00:21.306Z,24.67
2023-04-04T10:01:24.681Z,24.91
2023-04-04T10:02:27.739Z,24.97
2023-04-04T10:03:30.679Z,25.32
2023-04-04T10:04:35.441Z,25.01
2023-04-04T10:05:37.628Z,25.55
2023-04-04T10:06:39.864Z,25.36
2023-04-04T10:07:44.041Z,25.53
2023-04-04T10:08:46.075Z,25.45
2023-04-04T10:09:50.958Z,25.68
2023-04-04T10:11:09.729Z,25.83
2023-04-04T10:12:15.231Z,25.50
2023-04-04T10:13:28.326Z,25.77
2023-04-04T10:14:36.777Z,25.40
2023-04-04T10:15:38.882Z,25.09
2023-04-04T10:16:45.941Z,25.41
2023-04-04T10:17:48.490Z,25.71
2023-04-04T10:18:52.162Z,26.10
2023-04-04T10:19:54.438Z,25.81
2023-04-04T10:21:14.586Z,26.10
2023-04-04T10:22:18.054Z,25.95
2023-04-04T10:23:23.608Z,25.79
2023-04-04T10:24:25.809Z,25.92
2023-04-04T10:25:27.872Z,26.19
2023-04-04T10:26:29.891Z,26.23
2023-04-04T10:27:33.118Z,25.93
2023-04-04T10:28:35.586Z,27.83
2023-04-04T10:29:37.598Z,26.63
2023-04-04T10:30:55.701Z,26.29
2023-04-04T10:32:09.650Z,25.94
2023-04-04T10:33:20.070Z,26.24
2023-04-04T10:34:54.276Z,26.78
2023-04-04T10:36:02.304Z,26.22
2023-04-04T10:37:15.346Z,27.02
2023-04-04T10:38:21.832Z,26.00
2023-04-04T10:39:33.055Z,26.18
2023-04-04T10:40:39.307Z,25.99
2023-04-04T10:41:42.609Z,26.80
2023-04-04T10:42:47.753Z,26.75
2023-04-04T10:43:55.282Z,26.90
2023-04-04T10:45:09.052Z,26.42
2023-04-04T10:46:23.632Z,26.93
2023-04-04T10:47:29.715Z,26.02
2023-04-04T10:48:32.155Z,26.30
2023-04-04T10:49:34.712Z,26.36
2023-04-04T10:50:37.499Z,26.28
2023-04-04T10:51:52.972Z,26.08
2023-04-04T10:53:00.027Z,26.18
2023-04-04T10:54:02.614Z,26.12
2023-04-04T10:55:07.447Z,26.10
2023-04-04T10:56:10.671Z,26.07
2023-04-04T10:57:16.504Z,26.04
2023-04-04T10:58:18.718Z,25.63
2023-04-04T10:59:20.811Z,25.63
2023-04-04T11:00:24.483Z,25.30
2023-04-04T11:01:50.284Z,26.71
2023-04-04T11:02:57.929Z,26.19
2023-04-04T11:04:21.195Z,25.50
2023-04-04T11:05:28.108Z,26.33
2023-04-04T11:07:08.383Z,26.63
2023-04-04T11:08:14.381Z,26.51
2023-04-04T11:10:05.571Z,26.21
2023-04-04T11:11:19.875Z,26.56
2023-04-04T11:12:30.228Z,26.40
2023-04-04T11:13:35.944Z,27.43
2023-04-04T11:14:37.967Z,26.28
2023-04-04T11:15:47.904Z,26.78
2023-04-04T11:16:51.843Z,26.19
2023-04-04T11:18:17.891Z,28.12
2023-04-04T11:19:24.640Z,27.75
2023-04-04T11:20:38.111Z,27.15
2023-04-04T11:21:40.278Z,26.70
2023-04-04T11:22:45.878Z,26.65
2023-04-04T11:23:48.309Z,26.87
2023-04-04T11:25:00.949Z,26.57
2023-04-04T11:26:03.832Z,26.77
2023-04-04T11:27:08.132Z,27.62
2023-04-04T11:28:15.103Z,26.48
2023-04-04T11:29:22.897Z,27.62
2023-04-04T11:30:28.643Z,26.66
2023-04-04T11:31:34.960Z,26.67
2023-04-04T11:32:56.584Z,27.45
2023-04-04T11:34:11.661Z,26.54
2023-04-04T11:35:13.849Z,26.52
2023-04-04T11:36:38.030Z,26.47
2023-04-04T11:37:55.005Z,26.72
2023-04-04T11:38:58.775Z,26.48
2023-04-04T11:40:12.335Z,26.67
2023-04-04T11:41:15.064Z,26.66
2023-04-04T11:42:17.276Z,26.89
2023-04-04T11:43:20.656Z,27.06
2023-04-04T11:44:24.749Z,26.78
2023-04-04T11:45:27.386Z,27.61
2023-04-04T11:46:30.003Z,26.92
2023-04-04T11:47:32.291Z,26.92
2023-04-04T11:48:34.611Z,26.62
2023-04-04T11:49:41.864Z,26.62
2023-04-04T11:50:49.778Z,26.77
2023-04-04T11:51:52.875Z,27.12
2023-04-04T11:52:55.584Z,26.60
2023-04-04T11:53:57.625Z,26.41
2023-04-04T11:54:59.772Z,26.44
2023-04-04T11:56:01.882Z,28.60
2023-04-04T11:57:06.676Z,27.83
2023-04-04T11:58:12.745Z,26.70
2023-04-04T11:59:20.340Z,26.52
2023-04-04T12:00:37.481Z,26.94
2023-04-04T12:01:40.649Z,26.39
2023-04-04T12:02:43.755Z,26.44
2023-04-04T12:03:46.386Z,26.34
2023-04-04T12:04:48.642Z,26.61
2023-04-04T12:05:51.104Z,27.16
2023-04-04T12:06:55.317Z,26.58
2023-04-04T12:07:58.425Z,26.59
2023-04-04T12:09:02.892Z,26.58
2023-04-04T12:10:06.119Z,26.81
2023-04-04T12:11:11.922Z,26.77
2023-04-04T12:12:16.952Z,27.87
2023-04-04T12:13:19.396Z,27.14
2023-04-04T12:14:23.864Z,26.83
2023-04-04T12:15:29.265Z,26.76
2023-04-04T12:16:31.415Z,27.43
2023-04-04T12:17:34.750Z,27.04
2023-04-04T12:18:37.558Z,27.02
2023-04-04T12:19:41.022Z,26.87
2023-04-04T12:20:48.646Z,27.00
2023-04-04T12:21:52.411Z,27.02
2023-04-04T12:22:54.265Z,27.17
2023-04-04T12:23:56.899Z,27.91
2023-04-04T12:24:59.104Z,27.70
2023-04-04T12:26:04.153Z,28.50
2023-04-04T12:27:06.898Z,27.65
2023-04-04T12:28:09.410Z,27.66
2023-04-04T12:29:14.122Z,27.42
2023-04-04T12:30:17.204Z,27.48
2023-04-04T12:31:19.369Z,27.14
2023-04-04T12:32:21.642Z,27.11
2023-04-04T12:33:23.602Z,28.93
2023-04-04T12:35:38.415Z,27.09
2023-04-04T12:36:41.612Z,27.11
2023-04-04T12:38:03.761Z,27.58
2023-04-04T12:39:08.701Z,28.93
2023-04-04T12:40:11.179Z,27.01
2023-04-04T12:41:17.713Z,27.10
2023-04-04T12:42:26.335Z,26.99
2023-04-04T12:43:30.041Z,26.88
2023-04-04T12:44:39.859Z,26.95
2023-04-04T12:45:43.988Z,26.85
2023-04-04T12:46:47.730Z,27.43
2023-04-04T12:47:57.159Z,27.55
2023-04-04T12:49:00.135Z,27.19
2023-04-04T12:50:02.294Z,28.88
2023-04-04T12:51:05.231Z,27.75
2023-04-04T12:52:09.285Z,27.88
2023-04-04T12:54:30.762Z,27.43
2023-04-04T12:55:32.826Z,28.33
2023-04-04T12:56:38.023Z,28.03
2023-04-04T12:57:40.281Z,29.61
2023-04-04T12:58:47.955Z,27.98
2023-04-04T12:59:50.149Z,27.86
2023-04-04T13:00:54.677Z,27.62
2023-04-04T13:01:57.085Z,27.76
2023-04-04T13:02:59.258Z,27.67
2023-04-04T13:04:06.020Z,27.61
2023-04-04T13:05:10.340Z,27.67
2023-04-04T13:06:21.656Z,27.47
2023-04-04T13:07:29.293Z,27.71
2023-04-04T13:08:31.948Z,27.72
2023-04-04T13:09:35.861Z,27.62
2023-04-04T13:10:58.660Z,27.87
2023-04-04T13:12:08.582Z,27.86
2023-04-04T13:13:10.643Z,27.84
2023-04-04T13:14:14.516Z,27.97
2023-04-04T13:15:17.973Z,28.12
2023-04-04T13:16:35.946Z,28.04
2023-04-04T13:17:44.835Z,28.00
2023-04-04T13:18:48.547Z,28.23
2023-04-04T13:19:50.632Z,27.90
2023-04-04T13:20:54.577Z,27.96
2023-04-04T13:21:56.909Z,27.98
2023-04-04T13:22:59.181Z,28.00
2023-04-04T13:24:02.839Z,27.77
2023-04-04T13:25:06.358Z,27.98
2023-04-04T13:26:09.773Z,27.92
2023-04-04T13:27:11.711Z,28.03
2023-04-04T13:28:14.542Z,27.80
2023-04-04T13:29:16.663Z,28.12
2023-04-04T13:30:18.706Z,28.19
2023-04-04T13:31:21.225Z,28.45
2023-04-04T13:32:23.582Z,28.04
2023-04-04T13:33:25.877Z,28.05
2023-04-04T13:34:27.934Z,28.01
2023-04-04T13:35:30.059Z,27.74
2023-04-04T13:36:32.007Z,28.01
2023-04-04T13:37:33.956Z,27.90
2023-04-04T13:38:36.195Z,28.27
2023-04-04T13:39:38.211Z,27.89
2023-04-04T13:40:40.339Z,27.76
2023-04-04T13:41:42.405Z,27.82
2023-04-04T13:42:44.349Z,27.95
2023-04-04T13:43:46.405Z,28.08
2023-04-04T13:44:48.295Z,28.14
2023-04-04T13:45:50.657Z,28.21
2023-04-04T13:46:52.554Z,28.34
2023-04-04T13:47:54.791Z,28.28
2023-04-04T13:48:57.080Z,28.40
2023-04-04T13:49:59.043Z,28.42
2023-04-04T13:51:01.038Z,28.56
2023-04-04T13:52:03.683Z,28.45
2023-04-04T13:53:05.714Z,28.53
2023-04-04T13:54:07.622Z,28.71
2023-04-04T13:55:10.414Z,28.82
2023-04-04T13:56:18.243Z,28.86
2023-04-04T13:57:21.091Z,28.95
2023-04-04T13:58:23.024Z,28.98
2023-04-04T13:59:25.089Z,29.06
2023-04-04T14:00:27.272Z,29.04
2023-04-04T14:01:29.440Z,29.25
2023-04-04T14:02:31.963Z,29.53
2023-04-04T14:03:33.997Z,29.29
2023-04-04T14:04:36.155Z,29.26
2023-04-04T14:05:38.291Z,29.28
2023-04-04T14:06:40.999Z,29.30
2023-04-04T14:07:43.049Z,29.59
2023-04-04T14:08:46.736Z,29.53
2023-04-04T14:09:48.843Z,29.59
2023-04-04T14:10:51.053Z,29.43
2023-04-04T14:11:53.222Z,29.11